Terminal Aerodrome Forecast
Issued by NWS

Home | Current Version | Previous Version | Text Only | Print | Product List | Glossary On
Versions: 1 2 3 4 5 6 7 8 9 10 11 12 13 14
000
FTUS43 KTOP 011100
TAFMHK
TAF
KMHK 011123Z 0112/0212 18008KT P6SM FEW200
     FM011400 16013G23KT P6SM FEW025 SCT060
     FM011800 17021G31KT P6SM SCT040
     FM020300 14016G23KT P6SM VCTS BKN030CB
     FM020700 35010G18KT 4SM -TSRA OVC012CB=

USA.gov is the U.S. government's official web portal to all federal, state and local government web resources and services.